sensor_id;sensor_type;location;lat;lon;timestamp;P1;durP1;ratioP1;P2;durP2;ratioP2
7957;SDS011;4024;52.172;5.378;2023-04-16T00:01:36;8.13;;;3.60;;
7957;SDS011;4024;52.172;5.378;2023-04-16T00:04:01;9.27;;;3.40;;
7957;SDS011;4024;52.172;5.378;2023-04-16T00:06:27;10.83;;;3.53;;
7957;SDS011;4024;52.172;5.378;2023-04-16T00:08:53;9.07;;;3.30;;
7957;SDS011;4024;52.172;5.378;2023-04-16T00:11:18;6.53;;;3.40;;
7957;SDS011;4024;52.172;5.378;2023-04-16T00:13:44;10.33;;;3.17;;
7957;SDS011;4024;52.172;5.378;2023-04-16T00:16:09;6.93;;;3.13;;
7957;SDS011;4024;52.172;5.378;2023-04-16T00:18:35;7.27;;;3.30;;
7957;SDS011;4024;52.172;5.378;2023-04-16T00:21:00;5.23;;;2.97;;
7957;SDS011;4024;52.172;5.378;2023-04-16T00:23:26;5.93;;;2.80;;
7957;SDS011;4024;52.172;5.378;2023-04-16T00:25:52;10.30;;;3.47;;
7957;SDS011;4024;52.172;5.378;2023-04-16T00:28:21;8.83;;;3.20;;
7957;SDS011;4024;52.172;5.378;2023-04-16T00:30:46;4.77;;;2.70;;
7957;SDS011;4024;52.172;5.378;2023-04-16T00:33:12;9.43;;;3.83;;
7957;SDS011;4024;52.172;5.378;2023-04-16T00:35:37;6.03;;;3.50;;
7957;SDS011;4024;52.172;5.378;2023-04-16T00:38:03;9.53;;;3.53;;
7957;SDS011;4024;52.172;5.378;2023-04-16T00:40:28;9.83;;;3.63;;
7957;SDS011;4024;52.172;5.378;2023-04-16T00:42:54;9.27;;;4.23;;
7957;SDS011;4024;52.172;5.378;2023-04-16T00:45:20;14.17;;;4.07;;
7957;SDS011;4024;52.172;5.378;2023-04-16T00:47:45;10.40;;;4.23;;
7957;SDS011;4024;52.172;5.378;2023-04-16T00:50:12;6.97;;;4.07;;
7957;SDS011;4024;52.172;5.378;2023-04-16T00:52:38;12.57;;;4.27;;
7957;SDS011;4024;52.172;5.378;2023-04-16T00:55:05;8.20;;;3.70;;
7957;SDS011;4024;52.172;5.378;2023-04-16T00:57:32;10.47;;;4.00;;
7957;SDS011;4024;52.172;5.378;2023-04-16T00:59:57;10.27;;;4.40;;
7957;SDS011;4024;52.172;5.378;2023-04-16T01:02:23;11.13;;;4.20;;
7957;SDS011;4024;52.172;5.378;2023-04-16T01:04:49;8.50;;;4.20;;
7957;SDS011;4024;52.172;5.378;2023-04-16T01:07:15;8.10;;;3.90;;
7957;SDS011;4024;52.172;5.378;2023-04-16T01:09:41;7.93;;;3.90;;
7957;SDS011;4024;52.172;5.378;2023-04-16T01:12:06;9.57;;;4.17;;
7957;SDS011;4024;52.172;5.378;2023-04-16T01:14:32;9.70;;;4.00;;
7957;SDS011;4024;52.172;5.378;2023-04-16T01:17:00;9.60;;;4.10;;
7957;SDS011;4024;52.172;5.378;2023-04-16T01:19:27;8.13;;;4.00;;
7957;SDS011;4024;52.172;5.378;2023-04-16T01:21:55;8.50;;;3.60;;
7957;SDS011;4024;52.172;5.378;2023-04-16T01:24:22;7.43;;;4.10;;
7957;SDS011;4024;52.172;5.378;2023-04-16T01:26:47;10.70;;;4.93;;
7957;SDS011;4024;52.172;5.378;2023-04-16T01:29:13;7.20;;;3.97;;
7957;SDS011;4024;52.172;5.378;2023-04-16T01:31:38;13.03;;;5.03;;
7957;SDS011;4024;52.172;5.378;2023-04-16T01:34:04;10.93;;;4.53;;
7957;SDS011;4024;52.172;5.378;2023-04-16T01:36:30;9.53;;;4.60;;
7957;SDS011;4024;52.172;5.378;2023-04-16T01:38:55;9.20;;;4.93;;
7957;SDS011;4024;52.172;5.378;2023-04-16T01:41:21;13.60;;;5.37;;
7957;SDS011;4024;52.172;5.378;2023-04-16T01:43:46;9.73;;;4.70;;
7957;SDS011;4024;52.172;5.378;2023-04-16T01:46:13;9.77;;;4.23;;
7957;SDS011;4024;52.172;5.378;2023-04-16T01:48:42;10.40;;;4.77;;
7957;SDS011;4024;52.172;5.378;2023-04-16T01:51:08;15.43;;;5.93;;
7957;SDS011;4024;52.172;5.378;2023-04-16T01:53:34;12.77;;;5.30;;
7957;SDS011;4024;52.172;5.378;2023-04-16T01:56:00;10.53;;;5.80;;
7957;SDS011;4024;52.172;5.378;2023-04-16T01:58:27;10.20;;;5.87;;
7957;SDS011;4024;52.172;5.378;2023-04-16T02:00:53;20.37;;;7.27;;
7957;SDS011;4024;52.172;5.378;2023-04-16T02:03:19;12.80;;;6.33;;
7957;SDS011;4024;52.172;5.378;2023-04-16T02:05:48;17.50;;;7.50;;
7957;SDS011;4024;52.172;5.378;2023-04-16T02:08:13;13.67;;;7.37;;
7957;SDS011;4024;52.172;5.378;2023-04-16T02:10:39;11.77;;;6.93;;
7957;SDS011;4024;52.172;5.378;2023-04-16T02:13:05;15.73;;;7.40;;
7957;SDS011;4024;52.172;5.378;2023-04-16T02:15:30;12.83;;;7.20;;
7957;SDS011;4024;52.172;5.378;2023-04-16T02:17:56;11.97;;;6.63;;
7957;SDS011;4024;52.172;5.378;2023-04-16T02:20:21;12.40;;;7.67;;
7957;SDS011;4024;52.172;5.378;2023-04-16T02:22:47;15.30;;;7.53;;
7957;SDS011;4024;52.172;5.378;2023-04-16T02:25:13;13.73;;;7.43;;
7957;SDS011;4024;52.172;5.378;2023-04-16T02:27:38;19.83;;;7.27;;
7957;SDS011;4024;52.172;5.378;2023-04-16T02:30:04;16.43;;;6.97;;
7957;SDS011;4024;52.172;5.378;2023-04-16T02:32:31;16.70;;;7.83;;
7957;SDS011;4024;52.172;5.378;2023-04-16T02:34:56;13.57;;;7.30;;
7957;SDS011;4024;52.172;5.378;2023-04-16T02:37:22;16.63;;;7.60;;
7957;SDS011;4024;52.172;5.378;2023-04-16T02:39:48;14.27;;;8.10;;
7957;SDS011;4024;52.172;5.378;2023-04-16T02:42:14;14.17;;;7.63;;
7957;SDS011;4024;52.172;5.378;2023-04-16T02:44:40;14.07;;;8.33;;
7957;SDS011;4024;52.172;5.378;2023-04-16T02:47:06;13.87;;;7.63;;
7957;SDS011;4024;52.172;5.378;2023-04-16T02:49:31;16.07;;;7.90;;
7957;SDS011;4024;52.172;5.378;2023-04-16T02:51:57;15.07;;;8.67;;
7957;SDS011;4024;52.172;5.378;2023-04-16T02:54:22;16.83;;;8.53;;
7957;SDS011;4024;52.172;5.378;2023-04-16T02:56:48;18.07;;;9.63;;
7957;SDS011;4024;52.172;5.378;2023-04-16T02:59:14;16.77;;;8.80;;
7957;SDS011;4024;52.172;5.378;2023-04-16T03:01:39;18.10;;;9.40;;
7957;SDS011;4024;52.172;5.378;2023-04-16T03:04:05;17.57;;;8.97;;
7957;SDS011;4024;52.172;5.378;2023-04-16T03:06:32;17.17;;;9.23;;
7957;SDS011;4024;52.172;5.378;2023-04-16T03:08:57;19.30;;;10.03;;
7957;SDS011;4024;52.172;5.378;2023-04-16T03:11:23;20.37;;;9.73;;
7957;SDS011;4024;52.172;5.378;2023-04-16T03:13:48;18.20;;;9.60;;
7957;SDS011;4024;52.172;5.378;2023-04-16T03:16:14;13.83;;;9.50;;
7957;SDS011;4024;52.172;5.378;2023-04-16T03:18:41;19.40;;;10.20;;
7957;SDS011;4024;52.172;5.378;2023-04-16T03:21:10;17.20;;;9.33;;
7957;SDS011;4024;52.172;5.378;2023-04-16T03:23:42;18.37;;;8.90;;
7957;SDS011;4024;52.172;5.378;2023-04-16T03:26:07;15.57;;;7.50;;
7957;SDS011;4024;52.172;5.378;2023-04-16T03:28:33;15.73;;;9.27;;
7957;SDS011;4024;52.172;5.378;2023-04-16T03:31:02;20.27;;;9.30;;
7957;SDS011;4024;52.172;5.378;2023-04-16T03:33:27;14.83;;;8.73;;
7957;SDS011;4024;52.172;5.378;2023-04-16T03:35:54;17.70;;;9.93;;
7957;SDS011;4024;52.172;5.378;2023-04-16T03:38:21;23.13;;;9.70;;
7957;SDS011;4024;52.172;5.378;2023-04-16T03:40:47;19.70;;;9.50;;
7957;SDS011;4024;52.172;5.378;2023-04-16T03:43:12;17.30;;;10.00;;
7957;SDS011;4024;52.172;5.378;2023-04-16T03:45:42;18.10;;;9.83;;
7957;SDS011;4024;52.172;5.378;2023-04-16T03:48:08;19.40;;;10.13;;
7957;SDS011;4024;52.172;5.378;2023-04-16T03:50:34;19.10;;;10.57;;
7957;SDS011;4024;52.172;5.378;2023-04-16T03:53:05;16.10;;;10.13;;
7957;SDS011;4024;52.172;5.378;2023-04-16T03:55:33;15.17;;;10.67;;
7957;SDS011;4024;52.172;5.378;2023-04-16T03:57:59;17.73;;;10.97;;
7957;SDS011;4024;52.172;5.378;2023-04-16T04:00:27;16.70;;;10.20;;
7957;SDS011;4024;52.172;5.378;2023-04-16T04:02:53;18.10;;;10.87;;
7957;SDS011;4024;52.172;5.378;2023-04-16T04:05:19;19.97;;;11.97;;
7957;SDS011;4024;52.172;5.378;2023-04-16T04:07:44;18.83;;;11.27;;
7957;SDS011;4024;52.172;5.378;2023-04-16T04:10:10;21.80;;;10.90;;
7957;SDS011;4024;52.172;5.378;2023-04-16T04:12:37;16.63;;;9.90;;
7957;SDS011;4024;52.172;5.378;2023-04-16T04:15:05;20.67;;;10.43;;
7957;SDS011;4024;52.172;5.378;2023-04-16T04:17:31;23.07;;;11.10;;
7957;SDS011;4024;52.172;5.378;2023-04-16T04:19:56;23.90;;;10.60;;
7957;SDS011;4024;52.172;5.378;2023-04-16T04:22:22;19.93;;;10.57;;
7957;SDS011;4024;52.172;5.378;2023-04-16T04:24:48;18.30;;;10.53;;
7957;SDS011;4024;52.172;5.378;2023-04-16T04:27:13;18.23;;;10.53;;
7957;SDS011;4024;52.172;5.378;2023-04-16T04:29:39;21.63;;;9.70;;
7957;SDS011;4024;52.172;5.378;2023-04-16T04:32:05;16.00;;;9.07;;
7957;SDS011;4024;52.172;5.378;2023-04-16T04:34:30;18.77;;;9.30;;
7957;SDS011;4024;52.172;5.378;2023-04-16T04:36:56;21.83;;;10.07;;
7957;SDS011;4024;52.172;5.378;2023-04-16T04:39:24;16.27;;;9.20;;
7957;SDS011;4024;52.172;5.378;2023-04-16T04:41:49;17.37;;;10.00;;
7957;SDS011;4024;52.172;5.378;2023-04-16T04:44:16;18.10;;;9.57;;
7957;SDS011;4024;52.172;5.378;2023-04-16T04:46:42;15.90;;;10.30;;
7957;SDS011;4024;52.172;5.378;2023-04-16T04:49:07;21.30;;;10.63;;
7957;SDS011;4024;52.172;5.378;2023-04-16T04:51:33;20.23;;;10.20;;
7957;SDS011;4024;52.172;5.378;2023-04-16T04:53:58;20.87;;;9.90;;
7957;SDS011;4024;52.172;5.378;2023-04-16T04:56:24;16.17;;;10.40;;
7957;SDS011;4024;52.172;5.378;2023-04-16T04:58:50;19.63;;;10.17;;
7957;SDS011;4024;52.172;5.378;2023-04-16T05:01:15;25.53;;;10.83;;
7957;SDS011;4024;52.172;5.378;2023-04-16T05:03:41;22.40;;;10.77;;
7957;SDS011;4024;52.172;5.378;2023-04-16T05:06:06;25.10;;;11.10;;
7957;SDS011;4024;52.172;5.378;2023-04-16T05:08:32;20.17;;;11.57;;
7957;SDS011;4024;52.172;5.378;2023-04-16T05:10:58;19.83;;;10.63;;
7957;SDS011;4024;52.172;5.378;2023-04-16T05:13:24;20.60;;;11.10;;
7957;SDS011;4024;52.172;5.378;2023-04-16T05:15:50;22.23;;;11.00;;
7957;SDS011;4024;52.172;5.378;2023-04-16T05:18:15;24.03;;;10.93;;
7957;SDS011;4024;52.172;5.378;2023-04-16T05:20:41;17.73;;;10.90;;
7957;SDS011;4024;52.172;5.378;2023-04-16T05:23:06;25.30;;;10.97;;
7957;SDS011;4024;52.172;5.378;2023-04-16T05:25:32;16.13;;;10.77;;
7957;SDS011;4024;52.172;5.378;2023-04-16T05:27:57;23.33;;;11.17;;
7957;SDS011;4024;52.172;5.378;2023-04-16T05:30:23;20.37;;;11.07;;
7957;SDS011;4024;52.172;5.378;2023-04-16T05:32:49;20.10;;;10.80;;
7957;SDS011;4024;52.172;5.378;2023-04-16T05:35:15;20.90;;;11.30;;
7957;SDS011;4024;52.172;5.378;2023-04-16T05:37:41;19.97;;;11.90;;
7957;SDS011;4024;52.172;5.378;2023-04-16T05:40:06;20.53;;;11.50;;
7957;SDS011;4024;52.172;5.378;2023-04-16T05:42:33;22.00;;;12.03;;
7957;SDS011;4024;52.172;5.378;2023-04-16T05:44:58;23.63;;;11.70;;
7957;SDS011;4024;52.172;5.378;2023-04-16T05:47:25;16.77;;;9.97;;
7957;SDS011;4024;52.172;5.378;2023-04-16T05:49:51;22.27;;;10.23;;
7957;SDS011;4024;52.172;5.378;2023-04-16T05:52:17;17.90;;;10.67;;
7957;SDS011;4024;52.172;5.378;2023-04-16T05:54:42;17.83;;;10.07;;
7957;SDS011;4024;52.172;5.378;2023-04-16T05:57:08;18.77;;;11.43;;
7957;SDS011;4024;52.172;5.378;2023-04-16T05:59:34;20.30;;;11.27;;
7957;SDS011;4024;52.172;5.378;2023-04-16T06:01:59;24.40;;;12.17;;
7957;SDS011;4024;52.172;5.378;2023-04-16T06:04:25;23.33;;;11.40;;
7957;SDS011;4024;52.172;5.378;2023-04-16T06:06:51;18.17;;;12.30;;
7957;SDS011;4024;52.172;5.378;2023-04-16T06:09:16;21.57;;;11.87;;
7957;SDS011;4024;52.172;5.378;2023-04-16T06:11:43;20.37;;;12.07;;
7957;SDS011;4024;52.172;5.378;2023-04-16T06:14:09;24.43;;;12.97;;
7957;SDS011;4024;52.172;5.378;2023-04-16T06:16:35;25.80;;;13.43;;
7957;SDS011;4024;52.172;5.378;2023-04-16T06:19:00;25.00;;;12.40;;
7957;SDS011;4024;52.172;5.378;2023-04-16T06:21:26;28.90;;;13.17;;
7957;SDS011;4024;52.172;5.378;2023-04-16T06:23:53;26.60;;;12.73;;
7957;SDS011;4024;52.172;5.378;2023-04-16T06:26:20;25.63;;;12.87;;
7957;SDS011;4024;52.172;5.378;2023-04-16T06:28:45;19.63;;;12.97;;
7957;SDS011;4024;52.172;5.378;2023-04-16T06:31:11;20.50;;;13.37;;
7957;SDS011;4024;52.172;5.378;2023-04-16T06:33:36;25.67;;;13.77;;
7957;SDS011;4024;52.172;5.378;2023-04-16T06:36:02;23.13;;;13.77;;
7957;SDS011;4024;52.172;5.378;2023-04-16T06:38:28;23.87;;;13.40;;
7957;SDS011;4024;52.172;5.378;2023-04-16T06:40:53;21.73;;;12.63;;
7957;SDS011;4024;52.172;5.378;2023-04-16T06:43:20;26.40;;;13.67;;
7957;SDS011;4024;52.172;5.378;2023-04-16T06:45:46;21.37;;;12.57;;
7957;SDS011;4024;52.172;5.378;2023-04-16T06:48:11;25.40;;;12.97;;
7957;SDS011;4024;52.172;5.378;2023-04-16T06:50:37;24.47;;;12.93;;
7957;SDS011;4024;52.172;5.378;2023-04-16T06:53:03;23.13;;;12.80;;
7957;SDS011;4024;52.172;5.378;2023-04-16T06:55:28;21.10;;;12.40;;
7957;SDS011;4024;52.172;5.378;2023-04-16T06:57:54;25.93;;;13.97;;
7957;SDS011;4024;52.172;5.378;2023-04-16T07:00:19;26.53;;;15.00;;
7957;SDS011;4024;52.172;5.378;2023-04-16T07:02:45;24.97;;;15.90;;
7957;SDS011;4024;52.172;5.378;2023-04-16T07:05:11;24.30;;;16.07;;
7957;SDS011;4024;52.172;5.378;2023-04-16T07:07:36;24.80;;;15.97;;
7957;SDS011;4024;52.172;5.378;2023-04-16T07:10:02;26.10;;;15.57;;
7957;SDS011;4024;52.172;5.378;2023-04-16T07:12:29;20.03;;;14.73;;
7957;SDS011;4024;52.172;5.378;2023-04-16T07:14:55;23.73;;;14.57;;
7957;SDS011;4024;52.172;5.378;2023-04-16T07:17:21;19.30;;;12.93;;
7957;SDS011;4024;52.172;5.378;2023-04-16T07:19:46;19.27;;;12.83;;
7957;SDS011;4024;52.172;5.378;2023-04-16T07:22:12;20.47;;;12.57;;
7957;SDS011;4024;52.172;5.378;2023-04-16T07:24:37;19.90;;;12.37;;
7957;SDS011;4024;52.172;5.378;2023-04-16T07:27:03;19.20;;;12.37;;
7957;SDS011;4024;52.172;5.378;2023-04-16T07:29:29;21.63;;;13.30;;
7957;SDS011;4024;52.172;5.378;2023-04-16T07:31:54;20.57;;;12.27;;
7957;SDS011;4024;52.172;5.378;2023-04-16T07:34:20;20.80;;;12.40;;
7957;SDS011;4024;52.172;5.378;2023-04-16T07:36:45;18.03;;;12.23;;
7957;SDS011;4024;52.172;5.378;2023-04-16T07:39:11;21.13;;;12.60;;
7957;SDS011;4024;52.172;5.378;2023-04-16T07:41:37;18.87;;;12.07;;
7957;SDS011;4024;52.172;5.378;2023-04-16T07:44:04;15.20;;;10.60;;
7957;SDS011;4024;52.172;5.378;2023-04-16T07:46:30;18.73;;;11.57;;
7957;SDS011;4024;52.172;5.378;2023-04-16T07:48:56;15.80;;;10.77;;
7957;SDS011;4024;52.172;5.378;2023-04-16T07:51:21;17.40;;;10.67;;
7957;SDS011;4024;52.172;5.378;2023-04-16T07:53:47;13.47;;;9.87;;
7957;SDS011;4024;52.172;5.378;2023-04-16T07:56:13;20.10;;;10.17;;
7957;SDS011;4024;52.172;5.378;2023-04-16T07:58:38;13.43;;;9.77;;
7957;SDS011;4024;52.172;5.378;2023-04-16T08:01:04;15.53;;;9.93;;
7957;SDS011;4024;52.172;5.378;2023-04-16T08:03:31;13.03;;;9.03;;
7957;SDS011;4024;52.172;5.378;2023-04-16T08:05:57;12.57;;;8.87;;
7957;SDS011;4024;52.172;5.378;2023-04-16T08:08:22;11.60;;;9.07;;
7957;SDS011;4024;52.172;5.378;2023-04-16T08:10:49;14.30;;;8.87;;
7957;SDS011;4024;52.172;5.378;2023-04-16T08:13:19;11.97;;;8.60;;
7957;SDS011;4024;52.172;5.378;2023-04-16T08:15:46;10.17;;;8.00;;
7957;SDS011;4024;52.172;5.378;2023-04-16T08:18:12;11.17;;;8.13;;
7957;SDS011;4024;52.172;5.378;2023-04-16T08:20:39;12.33;;;8.57;;
7957;SDS011;4024;52.172;5.378;2023-04-16T08:23:06;13.00;;;8.37;;
7957;SDS011;4024;52.172;5.378;2023-04-16T08:25:31;11.40;;;8.17;;
7957;SDS011;4024;52.172;5.378;2023-04-16T08:27:57;10.73;;;8.30;;
7957;SDS011;4024;52.172;5.378;2023-04-16T08:30:22;10.13;;;7.67;;
7957;SDS011;4024;52.172;5.378;2023-04-16T08:32:48;12.97;;;8.13;;
7957;SDS011;4024;52.172;5.378;2023-04-16T08:35:14;11.33;;;7.77;;
7957;SDS011;4024;52.172;5.378;2023-04-16T08:37:40;8.67;;;6.93;;
7957;SDS011;4024;52.172;5.378;2023-04-16T08:40:05;11.07;;;7.90;;
7957;SDS011;4024;52.172;5.378;2023-04-16T08:42:32;9.83;;;7.83;;
7957;SDS011;4024;52.172;5.378;2023-04-16T08:45:11;8.87;;;7.30;;
7957;SDS011;4024;52.172;5.378;2023-04-16T08:47:45;10.00;;;7.13;;
7957;SDS011;4024;52.172;5.378;2023-04-16T08:50:13;8.97;;;7.20;;
7957;SDS011;4024;52.172;5.378;2023-04-16T08:52:50;8.27;;;6.77;;
7957;SDS011;4024;52.172;5.378;2023-04-16T08:55:17;9.13;;;6.70;;
7957;SDS011;4024;52.172;5.378;2023-04-16T08:57:49;9.90;;;6.43;;
7957;SDS011;4024;52.172;5.378;2023-04-16T09:00:18;7.27;;;6.23;;
7957;SDS011;4024;52.172;5.378;2023-04-16T09:02:44;8.83;;;6.30;;
7957;SDS011;4024;52.172;5.378;2023-04-16T09:05:13;8.60;;;6.60;;
7957;SDS011;4024;52.172;5.378;2023-04-16T09:07:43;9.70;;;6.70;;
7957;SDS011;4024;52.172;5.378;2023-04-16T09:10:10;7.23;;;6.00;;
7957;SDS011;4024;52.172;5.378;2023-04-16T09:12:36;7.40;;;6.17;;
7957;SDS011;4024;52.172;5.378;2023-04-16T09:15:03;7.37;;;6.00;;
7957;SDS011;4024;52.172;5.378;2023-04-16T09:17:30;7.07;;;6.03;;
7957;SDS011;4024;52.172;5.378;2023-04-16T09:19:56;9.93;;;6.17;;
7957;SDS011;4024;52.172;5.378;2023-04-16T09:22:21;10.27;;;6.13;;
7957;SDS011;4024;52.172;5.378;2023-04-16T09:24:47;7.73;;;5.17;;
7957;SDS011;4024;52.172;5.378;2023-04-16T09:27:12;7.87;;;6.37;;
7957;SDS011;4024;52.172;5.378;2023-04-16T09:29:39;9.37;;;6.47;;
7957;SDS011;4024;52.172;5.378;2023-04-16T09:32:07;8.03;;;6.20;;
7957;SDS011;4024;52.172;5.378;2023-04-16T09:34:34;12.13;;;6.93;;
7957;SDS011;4024;52.172;5.378;2023-04-16T09:37:17;8.03;;;6.50;;
7957;SDS011;4024;52.172;5.378;2023-04-16T09:39:43;8.63;;;6.23;;
7957;SDS011;4024;52.172;5.378;2023-04-16T09:42:10;9.10;;;6.10;;
7957;SDS011;4024;52.172;5.378;2023-04-16T09:44:36;6.90;;;6.20;;
7957;SDS011;4024;52.172;5.378;2023-04-16T09:47:06;8.93;;;7.17;;
7957;SDS011;4024;52.172;5.378;2023-04-16T09:49:34;15.10;;;8.60;;
7957;SDS011;4024;52.172;5.378;2023-04-16T09:52:07;8.63;;;6.40;;
7957;SDS011;4024;52.172;5.378;2023-04-16T09:54:37;8.97;;;7.17;;
7957;SDS011;4024;52.172;5.378;2023-04-16T09:57:06;11.30;;;7.07;;
7957;SDS011;4024;52.172;5.378;2023-04-16T09:59:34;10.43;;;7.60;;
7957;SDS011;4024;52.172;5.378;2023-04-16T10:02:00;12.20;;;7.60;;
7957;SDS011;4024;52.172;5.378;2023-04-16T10:04:26;11.83;;;8.93;;
7957;SDS011;4024;52.172;5.378;2023-04-16T10:07:02;13.10;;;9.20;;
7957;SDS011;4024;52.172;5.378;2023-04-16T10:09:32;13.47;;;9.23;;
7957;SDS011;4024;52.172;5.378;2023-04-16T10:12:02;15.53;;;8.60;;
7957;SDS011;4024;52.172;5.378;2023-04-16T10:14:28;11.63;;;8.40;;
7957;SDS011;4024;52.172;5.378;2023-04-16T10:16:54;14.63;;;9.10;;
7957;SDS011;4024;52.172;5.378;2023-04-16T10:19:20;11.17;;;8.60;;
7957;SDS011;4024;52.172;5.378;2023-04-16T10:21:46;12.53;;;8.70;;
7957;SDS011;4024;52.172;5.378;2023-04-16T10:24:12;12.23;;;8.43;;
7957;SDS011;4024;52.172;5.378;2023-04-16T10:26:40;13.57;;;8.50;;
7957;SDS011;4024;52.172;5.378;2023-04-16T10:29:06;13.43;;;7.97;;
7957;SDS011;4024;52.172;5.378;2023-04-16T10:31:33;14.97;;;9.27;;
7957;SDS011;4024;52.172;5.378;2023-04-16T10:34:01;13.23;;;9.13;;
7957;SDS011;4024;52.172;5.378;2023-04-16T10:36:28;14.43;;;9.60;;
7957;SDS011;4024;52.172;5.378;2023-04-16T10:38:57;15.43;;;10.67;;
7957;SDS011;4024;52.172;5.378;2023-04-16T10:41:24;14.63;;;10.60;;
7957;SDS011;4024;52.172;5.378;2023-04-16T10:43:50;21.00;;;12.73;;
7957;SDS011;4024;52.172;5.378;2023-04-16T10:46:21;20.40;;;12.40;;
7957;SDS011;4024;52.172;5.378;2023-04-16T10:48:49;18.13;;;11.23;;
7957;SDS011;4024;52.172;5.378;2023-04-16T10:51:24;18.63;;;10.50;;
7957;SDS011;4024;52.172;5.378;2023-04-16T10:53:54;15.63;;;11.33;;
7957;SDS011;4024;52.172;5.378;2023-04-16T10:56:26;17.67;;;11.27;;
7957;SDS011;4024;52.172;5.378;2023-04-16T10:58:55;19.97;;;10.77;;
7957;SDS011;4024;52.172;5.378;2023-04-16T11:02:05;18.57;;;11.53;;
7957;SDS011;4024;52.172;5.378;2023-04-16T11:09:56;14.53;;;9.87;;
7957;SDS011;4024;52.172;5.378;2023-04-16T11:15:02;16.70;;;10.93;;
7957;SDS011;4024;52.172;5.378;2023-04-16T11:17:42;16.30;;;10.60;;
7957;SDS011;4024;52.172;5.378;2023-04-16T11:22:43;12.67;;;9.37;;
7957;SDS011;4024;52.172;5.378;2023-04-16T11:25:09;15.63;;;11.70;;
7957;SDS011;4024;52.172;5.378;2023-04-16T11:27:35;14.43;;;11.40;;
7957;SDS011;4024;52.172;5.378;2023-04-16T11:30:07;15.00;;;10.40;;
7957;SDS011;4024;52.172;5.378;2023-04-16T11:32:36;17.53;;;11.10;;
7957;SDS011;4024;52.172;5.378;2023-04-16T11:35:03;14.83;;;11.17;;
7957;SDS011;4024;52.172;5.378;2023-04-16T11:37:37;15.80;;;11.07;;
7957;SDS011;4024;52.172;5.378;2023-04-16T11:40:03;17.43;;;12.63;;
7957;SDS011;4024;52.172;5.378;2023-04-16T11:42:36;17.00;;;11.37;;
7957;SDS011;4024;52.172;5.378;2023-04-16T11:45:09;16.50;;;11.10;;
7957;SDS011;4024;52.172;5.378;2023-04-16T11:47:42;15.03;;;10.93;;
7957;SDS011;4024;52.172;5.378;2023-04-16T11:50:27;16.50;;;10.70;;
7957;SDS011;4024;52.172;5.378;2023-04-16T11:52:56;15.77;;;10.53;;
7957;SDS011;4024;52.172;5.378;2023-04-16T11:55:27;18.17;;;11.30;;
7957;SDS011;4024;52.172;5.378;2023-04-16T11:57:53;19.63;;;11.40;;
7957;SDS011;4024;52.172;5.378;2023-04-16T12:00:19;14.97;;;10.40;;
7957;SDS011;4024;52.172;5.378;2023-04-16T12:02:48;15.17;;;10.50;;
7957;SDS011;4024;52.172;5.378;2023-04-16T12:07:55;16.07;;;10.20;;
7957;SDS011;4024;52.172;5.378;2023-04-16T12:10:21;13.30;;;9.00;;
7957;SDS011;4024;52.172;5.378;2023-04-16T12:12:47;16.63;;;9.93;;
7957;SDS011;4024;52.172;5.378;2023-04-16T12:15:13;13.73;;;8.70;;
7957;SDS011;4024;52.172;5.378;2023-04-16T12:17:39;15.43;;;9.23;;
7957;SDS011;4024;52.172;5.378;2023-04-16T12:22:38;14.90;;;8.77;;
7957;SDS011;4024;52.172;5.378;2023-04-16T12:25:11;18.13;;;8.90;;
7957;SDS011;4024;52.172;5.378;2023-04-16T12:30:17;11.60;;;8.33;;
7957;SDS011;4024;52.172;5.378;2023-04-16T12:32:44;12.77;;;8.87;;
7957;SDS011;4024;52.172;5.378;2023-04-16T12:35:11;18.00;;;9.60;;
7957;SDS011;4024;52.172;5.378;2023-04-16T12:37:37;16.03;;;8.90;;
7957;SDS011;4024;52.172;5.378;2023-04-16T12:40:04;13.77;;;8.63;;
7957;SDS011;4024;52.172;5.378;2023-04-16T12:42:30;13.77;;;9.93;;
7957;SDS011;4024;52.172;5.378;2023-04-16T12:45:01;15.53;;;10.10;;
7957;SDS011;4024;52.172;5.378;2023-04-16T12:47:28;16.07;;;10.20;;
7957;SDS011;4024;52.172;5.378;2023-04-16T12:49:54;17.77;;;10.90;;
7957;SDS011;4024;52.172;5.378;2023-04-16T12:52:24;15.60;;;10.27;;
7957;SDS011;4024;52.172;5.378;2023-04-16T12:54:50;21.00;;;12.37;;
7957;SDS011;4024;52.172;5.378;2023-04-16T12:57:17;20.40;;;11.73;;
7957;SDS011;4024;52.172;5.378;2023-04-16T12:59:43;21.60;;;12.13;;
7957;SDS011;4024;52.172;5.378;2023-04-16T13:02:09;22.40;;;12.37;;
7957;SDS011;4024;52.172;5.378;2023-04-16T13:04:35;22.93;;;13.17;;
7957;SDS011;4024;52.172;5.378;2023-04-16T13:07:00;24.17;;;12.73;;
7957;SDS011;4024;52.172;5.378;2023-04-16T13:09:26;21.20;;;12.27;;
7957;SDS011;4024;52.172;5.378;2023-04-16T13:11:52;22.80;;;12.53;;
7957;SDS011;4024;52.172;5.378;2023-04-16T13:14:18;22.37;;;13.10;;
7957;SDS011;4024;52.172;5.378;2023-04-16T13:16:44;25.63;;;13.13;;
7957;SDS011;4024;52.172;5.378;2023-04-16T13:19:10;22.37;;;13.50;;
7957;SDS011;4024;52.172;5.378;2023-04-16T13:21:36;29.87;;;13.40;;
7957;SDS011;4024;52.172;5.378;2023-04-16T13:24:01;29.10;;;14.47;;
7957;SDS011;4024;52.172;5.378;2023-04-16T13:26:27;24.73;;;13.30;;
7957;SDS011;4024;52.172;5.378;2023-04-16T13:28:53;23.03;;;12.67;;
7957;SDS011;4024;52.172;5.378;2023-04-16T13:31:19;26.60;;;13.07;;
7957;SDS011;4024;52.172;5.378;2023-04-16T13:33:46;20.83;;;13.27;;
7957;SDS011;4024;52.172;5.378;2023-04-16T13:36:12;22.40;;;12.40;;
7957;SDS011;4024;52.172;5.378;2023-04-16T13:38:37;18.23;;;11.13;;
7957;SDS011;4024;52.172;5.378;2023-04-16T13:41:04;19.90;;;12.03;;
7957;SDS011;4024;52.172;5.378;2023-04-16T13:43:30;18.87;;;11.43;;
7957;SDS011;4024;52.172;5.378;2023-04-16T13:45:56;15.50;;;10.87;;
7957;SDS011;4024;52.172;5.378;2023-04-16T13:48:22;17.20;;;10.67;;
7957;SDS011;4024;52.172;5.378;2023-04-16T13:50:48;19.37;;;10.47;;
7957;SDS011;4024;52.172;5.378;2023-04-16T13:53:13;16.73;;;9.93;;
7957;SDS011;4024;52.172;5.378;2023-04-16T13:55:40;16.53;;;10.10;;
7957;SDS011;4024;52.172;5.378;2023-04-16T13:58:06;16.03;;;9.50;;
7957;SDS011;4024;52.172;5.378;2023-04-16T14:00:32;16.23;;;10.07;;
7957;SDS011;4024;52.172;5.378;2023-04-16T14:02:58;20.20;;;9.57;;
7957;SDS011;4024;52.172;5.378;2023-04-16T14:05:23;13.13;;;9.70;;
7957;SDS011;4024;52.172;5.378;2023-04-16T14:07:49;15.60;;;9.67;;
7957;SDS011;4024;52.172;5.378;2023-04-16T14:10:15;14.37;;;9.83;;
7957;SDS011;4024;52.172;5.378;2023-04-16T14:12:41;15.63;;;9.87;;
7957;SDS011;4024;52.172;5.378;2023-04-16T14:15:08;14.67;;;9.80;;
7957;SDS011;4024;52.172;5.378;2023-04-16T14:17:34;20.33;;;10.73;;
7957;SDS011;4024;52.172;5.378;2023-04-16T14:20:05;17.90;;;10.07;;
7957;SDS011;4024;52.172;5.378;2023-04-16T14:22:31;14.77;;;9.50;;
7957;SDS011;4024;52.172;5.378;2023-04-16T14:24:56;19.77;;;9.87;;
7957;SDS011;4024;52.172;5.378;2023-04-16T14:27:23;15.70;;;10.03;;
7957;SDS011;4024;52.172;5.378;2023-04-16T14:29:48;17.87;;;10.07;;
7957;SDS011;4024;52.172;5.378;2023-04-16T14:32:14;18.80;;;10.60;;
7957;SDS011;4024;52.172;5.378;2023-04-16T14:34:40;16.00;;;9.37;;
7957;SDS011;4024;52.172;5.378;2023-04-16T14:37:06;15.37;;;9.73;;
7957;SDS011;4024;52.172;5.378;2023-04-16T14:39:32;25.63;;;11.10;;
7957;SDS011;4024;52.172;5.378;2023-04-16T14:41:58;12.57;;;9.23;;
7957;SDS011;4024;52.172;5.378;2023-04-16T14:44:23;19.97;;;9.70;;
7957;SDS011;4024;52.172;5.378;2023-04-16T14:46:49;15.77;;;10.00;;
7957;SDS011;4024;52.172;5.378;2023-04-16T14:49:14;17.63;;;10.80;;
7957;SDS011;4024;52.172;5.378;2023-04-16T14:51:40;17.77;;;10.13;;
7957;SDS011;4024;52.172;5.378;2023-04-16T14:54:06;15.10;;;10.57;;
7957;SDS011;4024;52.172;5.378;2023-04-16T14:56:32;12.93;;;9.87;;
7957;SDS011;4024;52.172;5.378;2023-04-16T14:58:57;14.50;;;9.77;;
7957;SDS011;4024;52.172;5.378;2023-04-16T15:01:23;13.03;;;9.90;;
7957;SDS011;4024;52.172;5.378;2023-04-16T15:03:48;14.57;;;9.93;;
7957;SDS011;4024;52.172;5.378;2023-04-16T15:06:14;17.27;;;10.90;;
7957;SDS011;4024;52.172;5.378;2023-04-16T15:08:40;16.67;;;10.77;;
7957;SDS011;4024;52.172;5.378;2023-04-16T15:11:06;13.73;;;10.13;;
7957;SDS011;4024;52.172;5.378;2023-04-16T15:13:32;14.87;;;10.30;;